Airfield :
LOGIN :

Register | Disclaimer

   EN    FR    IT 

 










Legend :    VFR   Marginal VFR   IFR   Intensive IFR   Very Intensive IFR
Visi :
Ceiling :
>= 8 km
>= 3000ft
5 to 8 km
1000 to 3000 ft
1500m to 5 km
500 to 1000 ft
800 to 1500m
200 to 500 ft
< 800m
< 200 ft
Symbols :   Thunderstorms  Fog  Heavy snow  Heavy precipitations  Wind > 20 kt
SIGMETs :     Misc.  Thunderstorms  Icing  Turbulence  Mountain Waves  Volcanic Ashes






- Airport Elevation : 13 ft
- IATA code : LYX


EGMD - Lydd

CURRENT METAR :
  • 252350Z AUTO VRB03KT 7000 -RA FEW017/// SCT030/// BKN037/// 09/08 Q0998

EXPIRED METARs :
  • 252320Z AUTO VRB03KT 9999 NCD 09/08 Q0998
  • 252250Z AUTO 31006KT 280V340 9999 FEW018/// SCT030/// 09/08 Q0998 RERA
  • 252220Z AUTO 21012KT 9999 -RA FEW013/// SCT035/// BKN041/// 10/09 Q0999
  • 252150Z AUTO 20006KT 7000 -RA SCT032/// BKN038/// BKN047/// 10/08 Q0999
  • 252120Z AUTO 25010KT 7000 -RA BKN043/// 10/08 Q0999

TAF TAF EGMD
Valid from the 26 at 00:00 until the 26 at 09:00 UTC


252259Z 2600/2609 22009KT 9999 SCT020
TEMPO 2600/2609 7000 SHRA
PROB30
TEMPO 2600/2609 24015G25KT 3000 +TSRA
ATIS : +44 1797 322 422



MET'MAP, your aeronautical weather chart ! - Copyright ORBIFLY December 2007 - Disclaimer

ORBIFLY MET'MAP TEAM :

Programming & Development : Alexandra Zaïnal
Concept & original design : Baudouin d'Aumeries
Assistance for programming : Marc-Olivier Méhu
Technical & hardware support : Manuel Goepfert

Contact : metmap@orbifly.com




SOURCES & CREDITS :

   NOAA